• Join FlightAware (Why Join?)
  • Login
  • US Flag 
02:56AM EDT


 

Airport Tracker/Info


-or-


 

Live Flight TrackerFlight Track Log ✈ ASQ5084 ✈ 27-Sep-2013 ✈ KATL - KTUL

Flight Track Log - Related Links

Times and Time Zones

All times are in EDT time to prevent confusion due to time zone crossing. See the ASQ5084 flight status page for this flight to view local times or setup timezone preferences in your user account.

Time Position Orientation Groundspeed Altitude Reporting Facility
EDT Latitude Longitude Course Direction KTS MPH feet Rate Location/Type
09:06AM 33.6500 -84.3667 73° East 159 183 2,600  Level Atlanta TRACON
09:07AM 33.6667 -84.3000 73° East 244 281 4,400 2,160 Climbing Atlanta TRACON
09:08AM 33.7333 -84.2833 12° North 273 314 7,000 2,460 Climbing Atlanta TRACON
09:09AM 33.8106 -84.3814 313° West 290 334 11,100 1,980 Climbing Atlanta Center
09:10AM 33.8103 -84.4789 270° West 313 360 12,400 1,440 Climbing Atlanta Center
09:11AM 33.8097 -84.5964 270° West 336 387 14,000 1,560 Climbing Atlanta Center
09:12AM 33.8111 -84.7289 271° West 350 403 15,600 1,500 Climbing Atlanta Center
09:13AM 33.8083 -84.8564 269° West 378 435 17,000 1,320 Climbing Atlanta Center
09:14AM 33.7969 -84.9861 264° West 392 451 18,300 1,440 Climbing Atlanta Center
09:15AM 33.7811 -85.1136 262° West 392 451 19,900 1,500 Climbing Atlanta Center
09:16AM 33.7717 -85.2458 265° West 392 451 21,400 1,320 Climbing Atlanta Center
09:17AM 33.7953 -85.3711 283° West 387 445 22,600 1,080 Climbing Atlanta Center
09:18AM 33.8169 -85.5039 281° West 397 457 23,600 1,020 Climbing Atlanta Center
09:19AM 33.8403 -85.6369 282° West 402 463 24,700 900 Climbing Atlanta Center
09:20AM 33.8742 -85.7528 289° West 407 468 25,500 900 Climbing Atlanta Center
09:21AM 33.9119 -85.8786 290° West 407 468 26,500 960 Climbing Atlanta Center
09:22AM 33.9539 -86.0072 291° West 407 468 27,500 960 Climbing Atlanta Center
09:23AM 33.9956 -86.1411 291° West 412 474 28,500 960 Climbing Atlanta Center
09:24AM 34.0306 -86.2772 287° West 417 480 29,500 960 Climbing Atlanta Center
09:25AM 34.0678 -86.4111 289° West 422 486 30,500 1,020 Climbing Atlanta Center
09:26AM 34.1069 -86.5425 290° West 428 493 31,600 720 Climbing Atlanta Center
09:27AM 34.1439 -86.6767 288° West 423 487 32,000 180 Climbing Atlanta Center
09:28AM 34.1806 -86.8119 288° West 448 516 32,000  Level Memphis Center
09:29AM 34.2222 -86.9586 289° West 478 550 32,000  Level Memphis Center
09:30AM 34.2636 -87.1050 289° West 478 550 32,000  Level Memphis Center
09:31AM 34.3006 -87.2469 288° West 455 524 32,000  Level Memphis Center
09:32AM 34.3397 -87.3914 288° West 455 524 32,000  Level Memphis Center
09:33AM 34.3828 -87.5386 290° West 455 524 32,000  Level Memphis Center
09:34AM 34.4239 -87.6983 287° West 455 524 32,000  Level Memphis Center
09:35AM 34.4644 -87.8481 288° West 455 524 32,000  Level Memphis Center
09:36AM 34.5069 -87.9931 290° West 455 524 32,000  Level Memphis Center
09:37AM 34.5431 -88.1408 287° West 455 524 32,000  Level Memphis Center
09:38AM 34.5833 -88.2936 288° West 461 531 32,000  Level Memphis Center
09:39AM 34.6233 -88.4417 288° West 461 531 32,000  Level Memphis Center
09:40AM 34.6586 -88.5797 287° West 444 511 32,000  Level Memphis Center
09:41AM 34.6983 -88.7278 288° West 449 517 32,000  Level Memphis Center
09:42AM 34.7356 -88.8761 287° West 456 525 32,000  Level Memphis Center
09:43AM 34.7747 -89.0247 288° West 461 531 32,000  Level Memphis Center
09:44AM 34.8075 -89.1558 287° West 456 525 32,000  Level Memphis Center
09:45AM 34.8464 -89.3044 288° West 456 525 32,000  Level Memphis Center
09:46AM 34.8831 -89.4508 287° West 450 518 32,000  Level Memphis Center
09:47AM 34.9236 -89.5947 289° West 455 524 32,000  Level Memphis Center
09:48AM 34.9642 -89.7489 288° West 468 539 32,000  Level Memphis Center
09:49AM 35.0044 -89.9211 286° West 487 560 32,000  Level Memphis Center
09:50AM 35.0383 -90.0503 288° West 464 534 32,000  Level Memphis Center
09:51AM 35.0844 -90.1972 291° West 458 527 32,000  Level Memphis Center
09:52AM 35.1306 -90.3394 292° West 463 533 32,000  Level Memphis Center
09:53AM 35.1764 -90.4867 291° West 463 533 32,000  Level Memphis Center
09:54AM 35.2219 -90.6342 291° West 463 533 32,000  Level Memphis Center
09:55AM 35.2675 -90.7792 291° West 463 533 32,000  Level Memphis Center
09:56AM 35.3128 -90.9269 291° West 469 540 32,000  Level Memphis Center
09:57AM 35.3619 -91.0903 290° West 469 540 32,000  Level Memphis Center
09:58AM 35.4028 -91.2181 291° West 461 531 32,000  Level Memphis Center
09:59AM 35.4558 -91.3842 291° West 467 537 32,000  Level Memphis Center
10:00AM 35.4942 -91.5172 290° West 465 535 32,000  Level Memphis Center
10:01AM 35.5386 -91.6658 290° West 465 535 32,000  Level Memphis Center
10:02AM 35.5831 -91.8122 291° West 470 541 32,000  Level Memphis Center
10:03AM 35.6269 -91.9636 290° West 470 541 32,000  Level Memphis Center
10:04AM 35.6708 -92.1100 290° West 470 541 32,000  Level Memphis Center
10:05AM 35.7147 -92.2592 290° West 470 541 32,000  Level Memphis Center
10:06AM 35.7603 -92.4086 291° West 470 541 32,000  Level Memphis Center
10:07AM 35.8056 -92.5583 290° West 465 535 32,000  Level Memphis Center
10:08AM 35.8467 -92.7081 289° West 465 535 32,000  Level Memphis Center
10:09AM 35.8897 -92.8553 290° West 465 535 32,000  Level Memphis Center
10:10AM 35.9364 -93.0206 289° West 465 535 32,000  Level Memphis Center
10:11AM 35.9789 -93.1683 290° West 465 535 32,000  Level Memphis Center
10:12AM 36.0194 -93.3158 289° West 465 535 32,000  Level Memphis Center
10:13AM 36.0636 -93.4639 290° West 465 535 32,000  Level Memphis Center
10:14AM 36.1058 -93.6144 289° West 465 535 32,000 -300 Level Memphis Center
10:15AM 36.1456 -93.7600 289° West 465 535 31,400 -1,320 Descending Memphis Center
10:16AM 36.1914 -93.9136 290° West 465 535 29,400 -2,040 Descending Memphis Center
10:17AM 36.2328 -94.0622 289° West 465 535 27,400 -2,100 Descending Memphis Center
10:18AM 36.2453 -94.2067 276° West 458 527 25,300 -2,100 Descending Memphis Center
10:19AM 36.2425 -94.3611 269° West 446 513 23,300 -1,860 Descending Memphis Center
10:20AM 36.2392 -94.4489 267° West 442 509 22,100 -1,920 Descending Kansas City Center
10:21AM 36.2350 -94.5956 268° West 435 501 20,000 -2,400 Descending Kansas City Center
10:22AM 36.2306 -94.7661 268° West 418 481 17,200 -2,580 Descending Kansas City Center
10:23AM 36.2267 -94.9019 268° West 401 461 14,700 -2,520 Descending Kansas City Center
10:24AM 36.2272 -95.0369 270° West 393 452 12,100 -2,640 Descending Kansas City Center
10:24AM 36.2333 -95.0656 285° West 382 440 11,600 -2,040 Descending Kansas City Center
10:25AM 36.2544 -95.1606 285° West 373 429 10,000 -1,620 Descending Kansas City Center
10:25AM 36.2614 -95.1886 287° West 373 429 10,000 -120 Level Kansas City Center
10:26AM 36.2808 -95.2856 284° West 372 428 9,900  Descending Kansas City Center
10:26AM 36.2872 -95.3097 288° West 357 411 10,000 -540 Climbing Kansas City Center
10:27AM 36.3056 -95.3978 285° West 267 307 9,400 -1,260 Descending Kansas City Center
10:28AM 36.3200 -95.4892 281° West 266 306 7,600 -1,680 Descending Kansas City Center
10:28AM 36.3200 -95.4794 90° East 285 328 7,700 -1,440 Climbing Kansas City Center
10:29AM 36.3258 -95.5753 274° West 273 314 6,100 -1,500 Descending Kansas City Center
10:30AM 36.3347 -95.6650 277° West 264 304 4,600 -1,620 Descending Kansas City Center
10:31AM 36.3319 -95.7683 268° West 254 292 2,800 -1,080 Descending Kansas City Center
10:32AM 36.3208 -95.8367 259° West 205 236 2,500 -300 Descending Kansas City Center
10:32AM 36.3192 -95.8436 253° West 234 269 2,500 -300 Level Kansas City Center
10:33AM 36.2969 -95.8761 230° Southwest 144 166 2,200 -420 Descending Kansas City Center
10:34AM 36.2933 -95.8775 197° South 181 208 2,100 -720 Descending Kansas City Center
10:35AM 36.2550 -95.8783 181° South 152 175 1,400 -720 Descending Kansas City Center
10:35AM 36.2197 -95.8808 183° South 131 151 800 -720 Descending Kansas City Center
10:36AM 36.2175 -95.8814 191° South 141 162 700 -600 Descending Kansas City Center